createdAt,value
2022-10-08T00:01:31.473Z,17.57
2022-10-08T00:04:00.041Z,17.20
2022-10-08T00:06:31.056Z,17.07
2022-10-08T00:09:02.900Z,17.43
2022-10-08T00:11:34.160Z,16.10
2022-10-08T00:14:03.317Z,16.13
2022-10-08T00:16:33.639Z,15.57
2022-10-08T00:19:04.861Z,15.13
2022-10-08T00:21:34.722Z,14.17
2022-10-08T00:24:05.857Z,13.13
2022-10-08T00:26:39.784Z,13.40
2022-10-08T00:29:10.402Z,13.07
2022-10-08T00:31:40.547Z,12.63
2022-10-08T00:34:10.627Z,13.50
2022-10-08T00:36:40.294Z,12.70
2022-10-08T00:39:13.447Z,13.40
2022-10-08T00:41:42.443Z,13.40
2022-10-08T00:44:51.485Z,14.23
2022-10-08T00:47:25.841Z,14.33
2022-10-08T00:49:57.146Z,12.50
2022-10-08T00:52:28.115Z,13.53
2022-10-08T00:54:58.267Z,13.87
2022-10-08T00:57:28.836Z,12.63
2022-10-08T00:59:57.563Z,12.87
2022-10-08T01:02:25.968Z,13.37
2022-10-08T01:04:54.300Z,13.77
2022-10-08T01:07:27.443Z,13.67
2022-10-08T01:10:02.751Z,14.33
2022-10-08T01:12:45.754Z,14.00
2022-10-08T01:15:24.029Z,14.10
2022-10-08T01:18:01.241Z,14.50
2022-10-08T01:20:35.756Z,14.27
2022-10-08T01:23:25.332Z,16.50
2022-10-08T01:26:03.719Z,16.10
2022-10-08T01:28:38.819Z,15.57
2022-10-08T01:31:10.115Z,16.30
2022-10-08T01:33:44.044Z,16.60
2022-10-08T01:36:13.675Z,17.40
2022-10-08T01:38:47.623Z,17.17
2022-10-08T01:41:18.501Z,17.53
2022-10-08T01:43:52.611Z,16.23
2022-10-08T01:46:24.697Z,15.47
2022-10-08T01:48:57.643Z,15.53
2022-10-08T01:51:32.940Z,15.13
2022-10-08T01:54:04.417Z,15.13
2022-10-08T01:56:35.424Z,14.93
2022-10-08T01:59:11.526Z,15.03
2022-10-08T02:02:00.933Z,13.90
2022-10-08T02:04:35.056Z,13.73
2022-10-08T02:07:07.525Z,13.53
2022-10-08T02:09:37.753Z,13.83
2022-10-08T02:12:06.780Z,14.20
2022-10-08T02:14:38.007Z,14.37
2022-10-08T02:17:21.602Z,15.43
2022-10-08T02:19:56.048Z,15.37
2022-10-08T02:22:28.835Z,16.80
2022-10-08T02:25:02.131Z,17.10
2022-10-08T02:27:42.024Z,17.80
2022-10-08T02:30:14.129Z,18.13
2022-10-08T02:32:51.275Z,17.83
2022-10-08T02:35:25.413Z,18.80
2022-10-08T02:37:58.799Z,19.07
2022-10-08T02:40:29.142Z,18.47
2022-10-08T02:43:02.484Z,18.13
2022-10-08T02:45:38.594Z,17.57
2022-10-08T02:48:11.898Z,17.53
2022-10-08T02:50:44.050Z,17.87
2022-10-08T02:53:14.719Z,17.37
2022-10-08T02:55:50.226Z,16.83
2022-10-08T02:58:18.806Z,16.93
2022-10-08T03:00:54.041Z,16.37
2022-10-08T03:03:28.936Z,16.63
2022-10-08T03:05:58.188Z,17.57
2022-10-08T03:08:27.260Z,17.33
2022-10-08T03:10:56.209Z,16.80
2022-10-08T03:13:25.617Z,16.67
2022-10-08T03:15:56.197Z,15.87
2022-10-08T03:18:26.304Z,16.77
2022-10-08T03:20:56.208Z,16.43
2022-10-08T03:23:25.733Z,15.13
2022-10-08T03:25:54.457Z,16.20
2022-10-08T03:28:22.765Z,16.63
2022-10-08T03:30:51.172Z,16.10
2022-10-08T03:33:20.823Z,15.87
2022-10-08T03:35:49.157Z,16.37
2022-10-08T03:38:17.582Z,16.07
2022-10-08T03:40:55.516Z,16.63
2022-10-08T03:43:24.196Z,15.90
2022-10-08T03:45:53.697Z,16.53
2022-10-08T03:48:23.995Z,16.33
2022-10-08T03:50:53.725Z,16.70
2022-10-08T03:53:22.500Z,16.10
2022-10-08T03:55:51.454Z,16.77
2022-10-08T03:58:19.731Z,17.10
2022-10-08T04:00:58.305Z,17.00
2022-10-08T04:03:29.084Z,16.27
2022-10-08T04:05:57.666Z,17.10
2022-10-08T04:08:26.823Z,18.10
2022-10-08T04:10:55.359Z,17.90
2022-10-08T04:13:23.908Z,31.90
2022-10-08T04:15:52.161Z,16.90
2022-10-08T04:18:20.854Z,17.97
2022-10-08T04:20:50.719Z,18.97
2022-10-08T04:23:18.979Z,19.37
2022-10-08T04:25:51.860Z,17.20
2022-10-08T04:28:20.666Z,19.00
2022-10-08T04:30:57.351Z,20.77
2022-10-08T04:33:26.285Z,19.50
2022-10-08T04:36:00.099Z,19.20
2022-10-08T04:38:29.537Z,19.63
2022-10-08T04:41:05.419Z,18.77
2022-10-08T04:43:33.932Z,17.37
2022-10-08T04:46:02.313Z,19.23
2022-10-08T04:48:30.991Z,18.93
2022-10-08T04:51:08.023Z,18.90
2022-10-08T04:53:38.892Z,17.43
2022-10-08T04:56:13.356Z,18.33
2022-10-08T04:58:42.191Z,18.33
2022-10-08T05:01:12.200Z,17.77
2022-10-08T05:03:42.362Z,17.97
2022-10-08T05:06:12.735Z,17.87
2022-10-08T05:08:40.970Z,16.20
2022-10-08T05:11:10.135Z,16.37
2022-10-08T05:13:38.913Z,15.80
2022-10-08T05:16:08.457Z,16.00
2022-10-08T05:18:38.049Z,15.80
2022-10-08T05:21:07.723Z,16.30
2022-10-08T05:23:38.181Z,16.43
2022-10-08T05:26:13.804Z,16.27
2022-10-08T05:28:42.568Z,17.30
2022-10-08T05:31:11.014Z,17.90
2022-10-08T05:33:39.829Z,18.70
2022-10-08T05:36:13.756Z,18.73
2022-10-08T05:38:43.685Z,18.23
2022-10-08T05:41:14.749Z,17.70
2022-10-08T05:43:43.568Z,19.60
2022-10-08T05:46:12.491Z,23.10
2022-10-08T05:48:41.105Z,19.80
2022-10-08T05:51:11.193Z,19.43
2022-10-08T05:53:41.959Z,19.30
2022-10-08T05:56:13.413Z,20.03
2022-10-08T05:58:42.432Z,20.07
2022-10-08T06:01:14.678Z,19.33
2022-10-08T06:03:43.424Z,18.63
2022-10-08T06:06:13.002Z,19.63
2022-10-08T06:08:41.702Z,17.73
2022-10-08T06:11:11.387Z,17.50
2022-10-08T06:13:39.951Z,18.80
2022-10-08T06:16:10.284Z,16.77
2022-10-08T06:18:40.732Z,17.70
2022-10-08T06:21:11.424Z,16.37
2022-10-08T06:23:41.200Z,14.80
2022-10-08T06:26:11.769Z,14.60
2022-10-08T06:28:40.573Z,13.27
2022-10-08T06:31:09.835Z,14.53
2022-10-08T06:33:38.359Z,13.43
2022-10-08T06:36:07.727Z,13.50
2022-10-08T06:38:36.086Z,12.70
2022-10-08T06:41:04.450Z,14.63
2022-10-08T06:43:34.192Z,13.23
2022-10-08T06:46:05.847Z,12.83
2022-10-08T06:48:34.663Z,11.47
2022-10-08T06:51:05.255Z,10.20
2022-10-08T06:53:34.639Z,11.40
2022-10-08T06:56:04.917Z,11.10
2022-10-08T06:58:36.288Z,11.87
2022-10-08T07:01:06.603Z,9.93
2022-10-08T07:03:35.500Z,9.30
2022-10-08T07:06:05.376Z,8.90
2022-10-08T07:08:33.870Z,8.47
2022-10-08T07:11:06.260Z,8.00
2022-10-08T07:13:37.183Z,8.07
2022-10-08T07:16:07.754Z,8.50
2022-10-08T07:18:38.006Z,8.30
2022-10-08T07:21:07.692Z,8.23
2022-10-08T07:23:36.208Z,7.90
2022-10-08T07:26:06.878Z,9.30
2022-10-08T07:28:38.248Z,7.73
2022-10-08T07:31:07.688Z,7.17
2022-10-08T07:33:36.123Z,6.50
2022-10-08T07:36:10.053Z,5.93
2022-10-08T07:38:39.307Z,5.80
2022-10-08T07:41:08.571Z,5.40
2022-10-08T07:43:41.855Z,5.90
2022-10-08T07:46:11.940Z,5.13
2022-10-08T07:48:40.649Z,4.30
2022-10-08T07:51:10.818Z,4.40
2022-10-08T07:53:39.374Z,3.60
2022-10-08T07:56:09.579Z,3.30
2022-10-08T07:58:40.045Z,3.83
2022-10-08T08:01:12.699Z,3.40
2022-10-08T08:03:41.225Z,3.20
2022-10-08T08:06:12.587Z,3.40
2022-10-08T08:08:42.826Z,2.83
2022-10-08T08:11:13.819Z,3.27
2022-10-08T08:13:44.193Z,3.20
2022-10-08T08:16:15.016Z,3.10
2022-10-08T08:18:45.570Z,3.20
2022-10-08T08:21:15.784Z,3.20
2022-10-08T08:23:45.999Z,3.13
2022-10-08T08:26:16.351Z,3.22
2022-10-08T08:28:46.208Z,3.20
2022-10-08T08:31:17.310Z,3.17
2022-10-08T08:33:50.949Z,2.95
2022-10-08T08:36:20.268Z,3.15
2022-10-08T08:38:48.696Z,2.97
2022-10-08T08:41:30.955Z,3.10
2022-10-08T08:44:02.515Z,3.13
2022-10-08T08:46:36.436Z,3.08
2022-10-08T08:49:16.236Z,3.20
2022-10-08T08:51:46.886Z,3.05
2022-10-08T08:54:15.552Z,6.43
2022-10-08T08:56:45.625Z,4.15
2022-10-08T08:59:27.858Z,3.40
2022-10-08T09:02:00.221Z,3.38
2022-10-08T09:04:44.315Z,3.53
2022-10-08T09:07:37.482Z,3.10
2022-10-08T09:10:09.486Z,3.20
2022-10-08T09:12:39.869Z,3.30
2022-10-08T09:15:18.718Z,3.70
2022-10-08T09:17:51.695Z,3.30
2022-10-08T09:20:22.783Z,3.42
2022-10-08T09:22:52.388Z,3.70
2022-10-08T09:25:23.512Z,3.72
2022-10-08T09:27:54.519Z,4.05
2022-10-08T09:30:36.488Z,3.60
2022-10-08T09:33:18.531Z,3.70
2022-10-08T09:35:49.305Z,3.10
2022-10-08T09:38:23.178Z,2.90
2022-10-08T09:41:02.917Z,2.20
2022-10-08T09:43:31.987Z,2.30
2022-10-08T09:46:05.699Z,2.25
2022-10-08T09:48:34.137Z,2.55
2022-10-08T09:51:06.017Z,2.40
2022-10-08T09:53:41.302Z,2.40
2022-10-08T09:56:11.071Z,2.60
2022-10-08T09:58:49.908Z,2.40
2022-10-08T10:01:20.382Z,2.33
2022-10-08T10:03:55.005Z,2.75
2022-10-08T10:06:29.049Z,2.65
2022-10-08T10:09:03.864Z,2.20
2022-10-08T10:11:38.420Z,2.58
2022-10-08T10:14:15.770Z,2.63
2022-10-08T10:16:47.789Z,2.80
2022-10-08T10:19:21.538Z,5.07
2022-10-08T10:21:57.869Z,3.08
2022-10-08T10:24:39.371Z,2.92
2022-10-08T10:27:13.709Z,3.10
2022-10-08T10:29:57.570Z,2.90
2022-10-08T10:32:32.332Z,3.05
2022-10-08T10:35:07.051Z,2.58
2022-10-08T10:37:44.956Z,2.75
2022-10-08T10:40:32.502Z,2.78
2022-10-08T10:43:18.517Z,2.60
2022-10-08T10:45:52.779Z,2.95
2022-10-08T10:48:22.671Z,3.00
2022-10-08T10:51:22.563Z,2.67
2022-10-08T10:54:04.822Z,2.60
2022-10-08T10:56:38.323Z,2.63
2022-10-08T10:59:20.196Z,3.30
2022-10-08T11:01:55.070Z,2.97
2022-10-08T11:04:39.270Z,2.80
2022-10-08T11:07:25.098Z,3.03
2022-10-08T11:09:59.370Z,2.22
2022-10-08T11:12:35.487Z,2.55
2022-10-08T11:15:15.195Z,2.50
2022-10-08T11:17:56.287Z,2.20
2022-10-08T11:20:45.229Z,2.60
2022-10-08T11:23:24.957Z,2.67
2022-10-08T11:28:53.095Z,2.70
2022-10-08T11:31:32.250Z,2.55
2022-10-08T11:34:01.308Z,2.28
2022-10-08T11:36:45.078Z,1.90
2022-10-08T11:39:19.341Z,2.10
2022-10-08T11:41:53.510Z,2.10
2022-10-08T11:44:22.639Z,2.13
2022-10-08T11:46:51.328Z,2.42
2022-10-08T11:49:48.209Z,2.00
2022-10-08T11:52:17.925Z,2.35
2022-10-08T11:54:55.632Z,2.60
2022-10-08T12:00:47.199Z,2.33
2022-10-08T12:03:24.771Z,2.60
2022-10-08T12:05:55.186Z,2.00
2022-10-08T12:08:51.726Z,2.00
2022-10-08T12:11:52.037Z,1.80
2022-10-08T12:14:34.258Z,1.65
2022-10-08T12:17:09.907Z,1.80
2022-10-08T12:20:20.064Z,1.60
2022-10-08T12:23:06.777Z,1.55
2022-10-08T12:25:44.296Z,1.58
2022-10-08T12:28:47.757Z,1.60
2022-10-08T12:31:31.693Z,1.85
2022-10-08T12:34:03.169Z,1.80
2022-10-08T12:36:41.205Z,1.65
2022-10-08T12:39:17.631Z,1.70
2022-10-08T12:41:58.548Z,1.90
2022-10-08T12:44:41.815Z,2.10
2022-10-08T12:47:23.863Z,1.80
2022-10-08T12:49:58.340Z,2.30
2022-10-08T12:52:27.910Z,2.00
2022-10-08T12:54:58.792Z,1.90
2022-10-08T12:57:33.864Z,1.88
2022-10-08T13:00:08.308Z,1.77
2022-10-08T13:02:39.658Z,1.70
2022-10-08T13:05:25.569Z,1.80
2022-10-08T13:07:54.542Z,1.75
2022-10-08T13:10:24.840Z,1.80
2022-10-08T13:13:06.081Z,1.50
2022-10-08T13:15:35.654Z,1.33
2022-10-08T13:18:14.758Z,1.20
2022-10-08T13:20:57.892Z,1.30
2022-10-08T13:23:27.145Z,1.90
2022-10-08T13:25:55.416Z,1.70
2022-10-08T13:28:48.285Z,1.60
2022-10-08T13:31:24.273Z,1.50
2022-10-08T13:33:52.936Z,1.73
2022-10-08T13:36:23.641Z,1.60
2022-10-08T13:38:52.073Z,1.45
2022-10-08T13:41:24.175Z,1.38
2022-10-08T13:43:54.233Z,1.73
2022-10-08T13:46:22.597Z,2.72
2022-10-08T13:48:51.212Z,1.80
2022-10-08T13:51:19.485Z,1.60
2022-10-08T13:53:47.792Z,2.70
2022-10-08T13:56:18.146Z,1.98
2022-10-08T13:58:46.428Z,1.80
2022-10-08T14:01:16.420Z,3.75
2022-10-08T14:03:44.712Z,2.25
2022-10-08T14:06:13.185Z,3.10
2022-10-08T14:08:41.476Z,2.35
2022-10-08T14:11:10.066Z,2.28
2022-10-08T14:13:38.306Z,2.25
2022-10-08T14:16:07.046Z,1.90
2022-10-08T14:18:36.680Z,6.00
2022-10-08T14:21:05.903Z,3.95
2022-10-08T14:23:34.408Z,4.82
2022-10-08T14:26:02.688Z,7.57
2022-10-08T14:28:31.580Z,3.38
2022-10-08T14:30:59.925Z,1.80
2022-10-08T14:33:28.378Z,7.65
2022-10-08T14:35:57.993Z,10.65
2022-10-08T14:38:26.191Z,5.10
2022-10-08T14:40:54.456Z,2.15
2022-10-08T14:43:26.909Z,3.00
2022-10-08T14:45:56.093Z,1.45
2022-10-08T14:48:24.376Z,1.20
2022-10-08T14:50:52.646Z,2.25
2022-10-08T14:53:22.284Z,2.30
2022-10-08T14:56:11.136Z,1.60
2022-10-08T14:58:38.850Z,1.60
2022-10-08T15:01:07.606Z,1.80
2022-10-08T15:03:35.981Z,2.15
2022-10-08T15:06:04.430Z,1.63
2022-10-08T15:08:35.165Z,2.58
2022-10-08T15:11:04.462Z,2.15
2022-10-08T15:13:34.731Z,2.03
2022-10-08T15:16:03.142Z,2.28
2022-10-08T15:18:32.574Z,1.65
2022-10-08T15:21:02.514Z,4.07
2022-10-08T15:23:33.320Z,2.05
2022-10-08T15:26:05.358Z,3.55
2022-10-08T15:28:36.891Z,3.20
2022-10-08T15:31:07.997Z,3.45
2022-10-08T15:33:39.316Z,1.35
2022-10-08T15:36:18.857Z,4.80
2022-10-08T15:38:47.478Z,5.95
2022-10-08T15:41:18.310Z,5.72
2022-10-08T15:43:46.860Z,2.85
2022-10-08T15:46:18.224Z,1.52
2022-10-08T15:48:52.851Z,2.00
2022-10-08T15:51:21.260Z,1.88
2022-10-08T15:53:49.849Z,2.00
2022-10-08T15:56:19.541Z,1.80
2022-10-08T15:58:51.723Z,1.70
2022-10-08T16:01:23.151Z,5.22
2022-10-08T16:03:53.734Z,5.78
2022-10-08T16:06:24.174Z,4.57
2022-10-08T16:08:52.875Z,3.17
2022-10-08T16:11:24.295Z,1.77
2022-10-08T16:13:54.199Z,1.42
2022-10-08T16:16:22.917Z,1.67
2022-10-08T16:18:55.970Z,1.60
2022-10-08T16:21:24.685Z,1.48
2022-10-08T16:23:53.326Z,2.00
2022-10-08T16:26:23.257Z,3.10
2022-10-08T16:28:55.100Z,4.18
2022-10-08T16:31:24.074Z,3.00
2022-10-08T16:33:56.171Z,2.20
2022-10-08T16:36:25.259Z,2.83
2022-10-08T16:38:54.114Z,3.40
2022-10-08T16:41:26.330Z,3.45
2022-10-08T16:43:56.019Z,3.95
2022-10-08T16:46:26.314Z,4.28
2022-10-08T16:48:56.232Z,4.80
2022-10-08T16:51:26.849Z,4.30
2022-10-08T16:53:57.833Z,4.70
2022-10-08T16:56:29.292Z,4.03
2022-10-08T16:58:58.855Z,3.90
2022-10-08T17:01:27.935Z,4.50
2022-10-08T17:03:56.536Z,4.00
2022-10-08T17:06:26.456Z,3.93
2022-10-08T17:08:55.577Z,3.70
2022-10-08T17:11:23.882Z,3.80
2022-10-08T17:13:55.640Z,3.90
2022-10-08T17:16:26.196Z,3.93
2022-10-08T17:18:56.357Z,4.00
2022-10-08T17:21:25.089Z,4.97
2022-10-08T17:23:53.682Z,5.10
2022-10-08T17:26:24.426Z,4.83
2022-10-08T17:28:55.074Z,5.00
2022-10-08T17:31:26.131Z,5.40
2022-10-08T17:33:54.990Z,3.50
2022-10-08T17:36:26.020Z,3.60
2022-10-08T17:38:55.966Z,4.43
2022-10-08T17:41:26.355Z,5.30
2022-10-08T17:43:57.329Z,6.17
2022-10-08T17:46:27.254Z,7.53
2022-10-08T17:48:56.179Z,16.90
2022-10-08T17:51:28.030Z,15.63
2022-10-08T17:53:58.632Z,8.03
2022-10-08T17:56:27.675Z,10.00
2022-10-08T17:58:57.630Z,10.80
2022-10-08T18:01:27.428Z,9.60
2022-10-08T18:03:57.451Z,9.70
2022-10-08T18:06:26.773Z,11.60
2022-10-08T18:08:56.026Z,9.60
2022-10-08T18:11:25.252Z,10.50
2022-10-08T18:13:54.290Z,11.40
2022-10-08T18:16:25.296Z,17.03
2022-10-08T18:18:53.637Z,18.43
2022-10-08T18:21:22.151Z,19.20
2022-10-08T18:23:50.840Z,18.57
2022-10-08T18:26:21.043Z,19.40
2022-10-08T18:28:51.564Z,19.33
2022-10-08T18:31:21.611Z,18.50
2022-10-08T18:33:55.502Z,9.93
2022-10-08T18:36:25.965Z,7.40
2022-10-08T18:38:56.761Z,7.97
2022-10-08T18:41:27.363Z,7.83
2022-10-08T18:43:59.439Z,7.63
2022-10-08T18:46:29.053Z,4.13
2022-10-08T18:48:59.512Z,3.90
2022-10-08T18:51:30.015Z,7.77
2022-10-08T18:53:59.548Z,4.40
2022-10-08T18:56:30.424Z,5.40
2022-10-08T18:58:59.816Z,3.23
2022-10-08T19:01:31.152Z,3.10
2022-10-08T19:04:03.012Z,2.93
2022-10-08T19:06:37.319Z,5.47
2022-10-08T19:09:06.966Z,5.97
2022-10-08T19:11:44.117Z,5.87
2022-10-08T19:14:15.472Z,5.50
2022-10-08T19:16:45.225Z,5.30
2022-10-08T19:19:17.123Z,6.50
2022-10-08T19:21:46.147Z,6.63
2022-10-08T19:24:16.443Z,7.03
2022-10-08T19:26:45.779Z,5.80
2022-10-08T19:29:17.294Z,8.93
2022-10-08T19:31:48.725Z,7.87
2022-10-08T19:34:20.667Z,8.80
2022-10-08T19:36:50.008Z,8.17
2022-10-08T19:39:20.793Z,7.73
2022-10-08T19:41:49.760Z,8.17
2022-10-08T19:44:18.721Z,7.87
2022-10-08T19:46:47.753Z,5.60
2022-10-08T19:49:16.487Z,4.70
2022-10-08T19:51:46.321Z,4.97
2022-10-08T19:54:15.723Z,5.17
2022-10-08T19:56:44.476Z,5.00
2022-10-08T19:59:13.722Z,5.30
2022-10-08T20:01:42.807Z,5.27
2022-10-08T20:04:13.688Z,5.17
2022-10-08T20:06:43.612Z,5.60
2022-10-08T20:09:14.461Z,5.63
2022-10-08T20:11:44.439Z,6.97
2022-10-08T20:14:13.415Z,7.40
2022-10-08T20:16:43.282Z,7.13
2022-10-08T20:19:16.957Z,5.13
2022-10-08T20:21:45.728Z,5.10
2022-10-08T20:24:16.016Z,5.00
2022-10-08T20:26:45.282Z,4.27
2022-10-08T20:29:16.460Z,3.60
2022-10-08T20:31:46.363Z,3.70
2022-10-08T20:34:17.691Z,3.80
2022-10-08T20:36:47.032Z,4.27
2022-10-08T20:39:18.728Z,4.73
2022-10-08T20:41:48.814Z,6.30
2022-10-08T20:44:18.034Z,12.93
2022-10-08T20:46:46.737Z,13.63
2022-10-08T20:49:15.727Z,12.07
2022-10-08T20:51:45.767Z,10.10
2022-10-08T20:54:16.994Z,10.33
2022-10-08T20:56:46.103Z,9.00
2022-10-08T20:59:17.265Z,8.70
2022-10-08T21:01:46.136Z,9.37
2022-10-08T21:04:14.777Z,9.13
2022-10-08T21:06:44.990Z,9.33
2022-10-08T21:09:14.160Z,8.87
2022-10-08T21:11:45.894Z,7.83
2022-10-08T21:14:17.603Z,7.77
2022-10-08T21:16:46.653Z,7.70
2022-10-08T21:19:18.819Z,8.77
2022-10-08T21:21:48.281Z,8.17
2022-10-08T21:24:16.917Z,9.10
2022-10-08T21:26:46.727Z,9.27
2022-10-08T21:29:15.593Z,9.20
2022-10-08T21:31:44.163Z,10.97
2022-10-08T21:34:13.506Z,8.93
2022-10-08T21:36:42.954Z,10.00
2022-10-08T21:39:15.828Z,8.40
2022-10-08T21:41:44.510Z,7.03
2022-10-08T21:44:14.798Z,8.17
2022-10-08T21:46:44.766Z,8.47
2022-10-08T21:49:15.297Z,10.13
2022-10-08T21:51:44.202Z,9.37
2022-10-08T21:54:13.142Z,9.00
2022-10-08T21:56:42.716Z,8.73
2022-10-08T21:59:16.230Z,8.93
2022-10-08T22:01:45.903Z,7.27
2022-10-08T22:04:16.472Z,8.17
2022-10-08T22:06:46.173Z,6.43
2022-10-08T22:09:19.781Z,6.40
2022-10-08T22:11:49.082Z,6.77
2022-10-08T22:14:19.155Z,6.50
2022-10-08T22:16:47.926Z,7.13
2022-10-08T22:19:16.959Z,6.27
2022-10-08T22:21:45.655Z,6.20
2022-10-08T22:24:14.522Z,17.70
2022-10-08T22:26:45.079Z,8.10
2022-10-08T22:29:13.472Z,6.40
2022-10-08T22:31:43.204Z,6.23
2022-10-08T22:34:11.485Z,5.90
2022-10-08T22:36:41.323Z,10.30
2022-10-08T22:39:10.344Z,7.97
2022-10-08T22:41:38.580Z,9.03
2022-10-08T22:44:07.115Z,9.77
2022-10-08T22:46:38.213Z,8.20
2022-10-08T22:49:10.161Z,6.77
2022-10-08T22:51:39.260Z,6.93
2022-10-08T22:54:07.938Z,6.00
2022-10-08T22:56:36.261Z,7.13
2022-10-08T22:59:05.103Z,6.03
2022-10-08T23:01:33.478Z,5.60
2022-10-08T23:04:01.821Z,5.30
2022-10-08T23:06:33.271Z,5.43
2022-10-08T23:09:03.072Z,5.13
2022-10-08T23:11:32.719Z,5.13
2022-10-08T23:14:01.791Z,8.10
2022-10-08T23:16:32.350Z,6.77
2022-10-08T23:19:02.608Z,7.03
2022-10-08T23:21:32.986Z,8.73
2022-10-08T23:24:01.446Z,8.77
2022-10-08T23:26:31.405Z,8.90
2022-10-08T23:29:01.202Z,8.47
2022-10-08T23:31:31.266Z,8.93
2022-10-08T23:34:00.518Z,9.40
2022-10-08T23:36:32.783Z,10.27
2022-10-08T23:39:01.811Z,11.00
2022-10-08T23:41:30.297Z,11.57
2022-10-08T23:43:59.095Z,10.63
2022-10-08T23:46:29.580Z,11.77
2022-10-08T23:48:59.434Z,12.87
2022-10-08T23:51:29.496Z,11.63
2022-10-08T23:54:01.052Z,11.57
2022-10-08T23:56:30.159Z,10.90
2022-10-08T23:58:58.464Z,10.53
